createdAt,value
2023-02-28T00:02:41.922Z,101832.56
2023-02-28T00:06:25.868Z,101835.27
2023-02-28T00:10:05.152Z,101837.45
2023-02-28T00:13:48.047Z,101842.48
2023-02-28T00:17:27.232Z,101840.04
2023-02-28T00:21:08.068Z,101840.95
2023-02-28T00:24:47.629Z,101838.25
2023-02-28T00:28:25.049Z,101841.51
2023-02-28T00:32:08.100Z,101842.46
2023-02-28T00:35:51.826Z,101840.75
2023-02-28T00:39:30.041Z,101843.28
2023-02-28T00:43:13.862Z,101843.01
2023-02-28T00:46:51.978Z,101849.11
2023-02-28T00:50:31.134Z,101856.21
2023-02-28T00:54:10.971Z,101857.91
2023-02-28T00:57:50.459Z,101863.23
2023-02-28T01:01:29.317Z,101868.30
2023-02-28T01:05:09.496Z,101866.73
2023-02-28T01:08:48.105Z,101870.30
2023-02-28T01:12:31.007Z,101871.36
2023-02-28T01:16:05.987Z,101875.13
2023-02-28T01:19:48.074Z,101880.48
2023-02-28T01:23:22.493Z,101883.95
2023-02-28T01:27:03.489Z,101886.90
2023-02-28T01:30:39.225Z,101894.94
2023-02-28T01:34:20.504Z,101898.25
2023-02-28T01:37:55.803Z,101901.41
2023-02-28T01:41:37.158Z,101899.31
2023-02-28T01:45:15.019Z,101905.34
2023-02-28T01:48:53.825Z,101906.33
2023-02-28T01:52:31.125Z,101908.53
2023-02-28T01:56:12.665Z,101909.79
2023-02-28T01:59:50.265Z,101914.94
2023-02-28T02:03:30.460Z,101912.90
2023-02-28T02:07:08.224Z,101912.83
2023-02-28T02:10:49.562Z,101910.21
2023-02-28T02:14:24.849Z,101908.64
2023-02-28T02:18:06.250Z,101907.25
2023-02-28T02:21:44.153Z,101907.32
2023-02-28T02:25:25.483Z,101909.59
2023-02-28T02:29:02.867Z,101919.27
2023-02-28T02:32:43.976Z,101919.55
2023-02-28T02:36:21.220Z,101923.30
2023-02-28T02:39:55.937Z,101921.07
2023-02-28T02:43:37.139Z,101928.45
2023-02-28T02:47:14.169Z,101919.13
2023-02-28T02:50:55.136Z,101925.83
2023-02-28T02:54:33.237Z,101927.05
2023-02-28T02:58:15.653Z,101927.27
2023-02-28T03:01:53.335Z,101928.27
2023-02-28T03:05:34.058Z,101929.46
2023-02-28T03:09:12.194Z,101931.85
2023-02-28T03:12:53.138Z,101931.80
2023-02-28T03:16:30.295Z,101936.17
2023-02-28T03:20:11.172Z,101940.95
2023-02-28T03:23:49.244Z,101949.67
2023-02-28T03:27:30.121Z,101954.84
2023-02-28T03:31:08.218Z,101956.80
2023-02-28T03:34:50.696Z,101961.35
2023-02-28T03:38:28.105Z,101968.20
2023-02-28T03:42:09.365Z,101971.83
2023-02-28T03:45:46.285Z,101970.74
2023-02-28T03:49:27.199Z,101970.27
2023-02-28T03:53:05.250Z,101969.27
2023-02-28T03:56:46.359Z,101965.60
2023-02-28T04:00:23.457Z,101969.80
2023-02-28T04:04:04.970Z,101976.55
2023-02-28T04:07:55.439Z,101981.23
2023-02-28T04:11:37.373Z,101977.47
2023-02-28T04:15:16.424Z,101974.67
2023-02-28T04:18:57.878Z,101975.23
2023-02-28T04:22:35.312Z,101973.92
2023-02-28T04:26:16.375Z,101975.06
2023-02-28T04:29:57.348Z,101970.78
2023-02-28T04:33:39.134Z,101976.56
2023-02-28T04:37:16.416Z,101980.65
2023-02-28T04:40:57.306Z,101982.30
2023-02-28T04:44:34.431Z,101979.28
2023-02-28T04:48:15.783Z,101991.48
2023-02-28T04:51:53.318Z,101993.39
2023-02-28T04:55:35.251Z,101994.94
2023-02-28T04:59:12.382Z,101998.00
2023-02-28T05:02:53.906Z,101999.55
2023-02-28T05:06:31.398Z,101999.77
2023-02-28T05:10:12.324Z,102004.90
2023-02-28T05:13:49.421Z,102005.94
2023-02-28T05:17:30.350Z,102008.71
2023-02-28T05:21:08.376Z,102011.50
2023-02-28T05:24:49.374Z,102017.19
2023-02-28T05:28:26.403Z,102019.39
2023-02-28T05:32:07.490Z,102018.45
2023-02-28T05:35:49.058Z,102023.54
2023-02-28T05:39:26.400Z,102029.41
2023-02-28T05:43:07.372Z,102031.78
2023-02-28T05:46:44.426Z,102033.58
2023-02-28T05:50:25.926Z,102039.45
2023-02-28T05:54:03.442Z,102040.91
2023-02-28T05:57:45.493Z,102037.89
2023-02-28T06:01:22.450Z,102033.46
2023-02-28T06:04:57.045Z,102026.13
2023-02-28T06:08:30.003Z,102021.36
2023-02-28T06:12:06.108Z,102016.11
2023-02-28T06:15:38.620Z,102021.80
2023-02-28T06:19:15.718Z,102024.54
2023-02-28T06:22:50.926Z,102025.66
2023-02-28T06:26:27.154Z,102026.22
2023-02-28T06:30:01.900Z,102024.92
2023-02-28T06:33:38.748Z,102025.60
2023-02-28T06:37:13.501Z,102027.41
2023-02-28T06:40:49.651Z,102027.91
2023-02-28T06:44:25.037Z,102025.82
2023-02-28T06:47:56.388Z,102022.80
2023-02-28T06:51:31.090Z,102025.33
2023-02-28T06:55:04.047Z,102018.77
2023-02-28T06:58:40.830Z,102016.70
2023-02-28T07:02:15.348Z,102016.09
2023-02-28T07:05:52.119Z,102018.59
2023-02-28T07:09:26.626Z,102015.77
2023-02-28T07:12:56.818Z,102015.30
2023-02-28T07:16:31.038Z,102019.48
2023-02-28T07:20:02.359Z,102015.81
2023-02-28T07:23:40.156Z,102021.33
2023-02-28T07:27:11.396Z,102018.08
2023-02-28T07:30:49.255Z,102017.67
2023-02-28T07:34:23.040Z,102022.39
2023-02-28T07:37:37.336Z,102024.02
2023-02-28T07:41:15.237Z,102031.60
2023-02-28T07:44:47.875Z,102041.03
2023-02-28T07:48:19.385Z,102053.34
2023-02-28T07:51:51.597Z,102060.32
2023-02-28T07:55:24.764Z,102058.72
2023-02-28T07:59:01.012Z,102061.05
2023-02-28T08:02:34.324Z,102065.80
2023-02-28T08:06:22.874Z,102063.58
2023-02-28T08:10:09.152Z,102066.48
2023-02-28T08:13:47.820Z,102067.41
2023-02-28T08:17:34.325Z,102067.52
2023-02-28T08:21:12.664Z,102069.25
2023-02-28T08:24:52.727Z,102072.30
2023-02-28T08:28:32.143Z,102069.48
2023-02-28T08:32:23.619Z,102070.63
2023-02-28T08:36:08.207Z,102068.38
2023-02-28T08:39:46.677Z,102066.06
2023-02-28T08:43:27.378Z,102063.60
2023-02-28T08:47:06.738Z,102061.21
2023-02-28T08:50:55.738Z,102056.41
2023-02-28T08:54:46.780Z,102052.40
2023-02-28T08:58:23.950Z,102049.92
2023-02-28T09:02:07.105Z,102041.70
2023-02-28T09:05:44.702Z,102043.34
2023-02-28T09:09:24.346Z,102036.20
2023-02-28T09:13:02.617Z,102034.18
2023-02-28T09:16:43.206Z,102029.32
2023-02-28T09:20:20.618Z,102026.98
2023-02-28T09:24:02.333Z,102022.05
2023-02-28T09:27:42.314Z,102022.05
2023-02-28T09:31:23.369Z,102019.27
2023-02-28T09:35:01.004Z,102019.05
2023-02-28T09:38:48.881Z,102010.11
2023-02-28T09:42:27.758Z,102009.15
2023-02-28T09:46:09.779Z,102006.52
2023-02-28T09:49:46.891Z,102005.81
2023-02-28T09:53:27.875Z,102002.89
2023-02-28T09:57:05.899Z,101996.20
2023-02-28T10:00:47.432Z,101995.71
2023-02-28T10:04:24.866Z,101981.74
2023-02-28T10:08:05.966Z,101981.73
2023-02-28T10:15:32.466Z,101972.19
2023-02-28T10:19:09.912Z,101971.91
2023-02-28T10:22:50.824Z,101963.85
2023-02-28T10:26:30.191Z,101957.84
2023-02-28T10:30:12.031Z,101947.30
2023-02-28T10:33:49.933Z,101943.27
2023-02-28T10:37:31.108Z,101944.02
2023-02-28T10:41:09.111Z,101945.27
2023-02-28T10:44:50.964Z,101943.16
2023-02-28T10:48:29.070Z,101942.91
2023-02-28T10:52:09.957Z,101939.61
2023-02-28T10:55:50.051Z,101947.14
2023-02-28T10:59:31.396Z,101943.73
2023-02-28T11:03:11.046Z,101939.09
2023-02-28T11:06:52.914Z,101934.41
2023-02-28T11:10:30.005Z,101935.98
2023-02-28T11:14:11.468Z,101939.67
2023-02-28T11:17:49.058Z,101934.48
2023-02-28T11:21:30.913Z,101927.23
2023-02-28T11:25:08.071Z,101926.11
2023-02-28T11:28:49.651Z,101925.58
2023-02-28T11:32:27.309Z,101920.23
2023-02-28T11:36:08.692Z,101920.53
2023-02-28T11:39:48.210Z,101919.64
2023-02-28T11:43:28.978Z,101914.51
2023-02-28T11:47:06.066Z,101913.52
2023-02-28T11:50:47.042Z,101910.46
2023-02-28T11:54:25.078Z,101910.69
2023-02-28T11:58:06.733Z,101905.98
2023-02-28T12:01:44.123Z,101908.35
2023-02-28T12:05:27.330Z,101894.83
2023-02-28T12:09:05.318Z,101899.00
2023-02-28T12:12:39.779Z,101891.54
2023-02-28T12:15:56.254Z,101890.83
2023-02-28T12:19:33.494Z,101887.10
2023-02-28T12:23:06.179Z,101887.75
2023-02-28T12:26:42.980Z,101888.27
2023-02-28T12:30:18.007Z,101886.98
2023-02-28T12:33:56.786Z,101880.05
2023-02-28T12:37:29.658Z,101875.59
2023-02-28T12:41:06.334Z,101872.30
2023-02-28T12:44:39.059Z,101870.67
2023-02-28T12:48:16.314Z,101866.79
2023-02-28T12:51:49.809Z,101859.04
2023-02-28T12:55:26.589Z,101855.11
2023-02-28T12:59:06.637Z,101849.13
2023-02-28T13:02:49.891Z,101846.45
2023-02-28T13:06:25.137Z,101836.80
2023-02-28T13:10:05.642Z,101835.30
2023-02-28T13:13:42.052Z,101832.29
2023-02-28T13:17:21.499Z,101835.11
2023-02-28T13:20:56.819Z,101836.45
2023-02-28T13:24:36.562Z,101829.52
2023-02-28T13:28:12.251Z,101828.90
2023-02-28T13:31:52.382Z,101826.38
2023-02-28T13:35:28.175Z,101824.46
2023-02-28T13:39:07.101Z,101818.42
2023-02-28T13:42:42.763Z,101816.64
2023-02-28T13:46:21.721Z,101813.80
2023-02-28T13:49:57.067Z,101815.39
2023-02-28T13:53:36.501Z,101812.93
2023-02-28T13:57:08.880Z,101814.26
2023-02-28T14:00:54.215Z,101810.47
2023-02-28T14:04:31.387Z,101811.13
2023-02-28T14:08:13.646Z,101803.18
2023-02-28T14:11:50.512Z,101791.89
2023-02-28T14:15:29.460Z,101790.64
2023-02-28T14:19:05.351Z,101792.25
2023-02-28T14:22:44.146Z,101793.59
2023-02-28T14:26:16.452Z,101792.38
2023-02-28T14:29:53.734Z,101790.88
2023-02-28T14:33:30.480Z,101790.92
2023-02-28T14:37:06.978Z,101784.30
2023-02-28T14:40:39.530Z,101780.50
2023-02-28T14:44:22.585Z,101778.27
2023-02-28T14:48:01.447Z,101777.33
2023-02-28T14:51:40.522Z,101776.80
2023-02-28T14:55:16.219Z,101772.60
2023-02-28T14:58:55.588Z,101767.58
2023-02-28T15:02:32.615Z,101769.09
2023-02-28T15:06:12.389Z,101769.35
2023-02-28T15:09:49.374Z,101762.80
2023-02-28T15:13:28.261Z,101759.44
2023-02-28T15:17:03.397Z,101758.13
2023-02-28T15:20:44.594Z,101758.56
2023-02-28T15:24:20.484Z,101758.37
2023-02-28T15:28:00.316Z,101755.75
2023-02-28T15:31:50.210Z,101756.13
2023-02-28T15:35:34.095Z,101749.05
2023-02-28T15:39:16.125Z,101742.41
2023-02-28T15:42:55.278Z,101744.16
2023-02-28T15:46:31.532Z,101744.65
2023-02-28T15:50:11.320Z,101745.95
2023-02-28T15:53:46.052Z,101744.89
2023-02-28T15:57:25.277Z,101744.30
2023-02-28T16:01:00.139Z,101747.95
2023-02-28T16:04:37.105Z,101746.04
2023-02-28T16:08:17.732Z,101746.13
2023-02-28T16:11:55.371Z,101743.50
2023-02-28T16:15:32.665Z,101747.73
2023-02-28T16:19:10.568Z,101745.42
2023-02-28T16:22:49.678Z,101744.85
2023-02-28T16:26:27.431Z,101741.55
2023-02-28T16:30:04.651Z,101741.45
2023-02-28T16:33:42.227Z,101739.64
2023-02-28T16:37:17.871Z,101738.91
2023-02-28T16:40:55.276Z,101732.88
2023-02-28T16:44:30.417Z,101733.39
2023-02-28T16:48:08.711Z,101733.76
2023-02-28T16:51:44.592Z,101733.33
2023-02-28T16:55:26.556Z,101726.57
2023-02-28T16:59:03.542Z,101724.90
2023-02-28T17:02:45.627Z,101727.27
2023-02-28T17:06:23.668Z,101729.98
2023-02-28T17:10:02.526Z,101727.58
2023-02-28T17:13:43.580Z,101726.83
2023-02-28T17:17:23.441Z,101730.57
2023-02-28T17:21:03.644Z,101723.88
2023-02-28T17:24:42.862Z,101727.27
2023-02-28T17:28:20.619Z,101732.98
2023-02-28T17:32:12.294Z,101733.11
2023-02-28T17:35:54.572Z,101733.27
2023-02-28T17:39:36.694Z,101733.43
2023-02-28T17:43:12.791Z,101735.07
2023-02-28T17:46:54.846Z,101731.90
2023-02-28T17:50:30.612Z,101731.49
2023-02-28T17:54:11.768Z,101735.38
2023-02-28T17:57:47.581Z,101735.14
2023-02-28T18:01:31.400Z,101732.88
2023-02-28T18:05:06.584Z,101728.21
2023-02-28T18:08:44.098Z,101735.70
2023-02-28T18:12:21.659Z,101732.48
2023-02-28T18:16:01.325Z,101735.71
2023-02-28T18:19:38.804Z,101737.83
2023-02-28T18:23:18.023Z,101739.04
2023-02-28T18:26:55.736Z,101742.88
2023-02-28T18:30:36.652Z,101748.23
2023-02-28T18:34:14.611Z,101743.22
2023-02-28T18:37:55.124Z,101746.17
2023-02-28T18:41:32.760Z,101741.45
2023-02-28T18:45:13.710Z,101740.24
2023-02-28T18:48:51.650Z,101740.20
2023-02-28T18:52:32.791Z,101741.36
2023-02-28T18:56:16.272Z,101743.64
2023-02-28T18:59:54.766Z,101746.68
2023-02-28T19:03:35.922Z,101744.27
2023-02-28T19:07:17.780Z,101737.71
2023-02-28T19:11:00.919Z,101736.27
2023-02-28T19:14:42.808Z,101739.52
2023-02-28T19:18:24.341Z,101741.44
2023-02-28T19:22:06.699Z,101745.52
2023-02-28T19:25:48.327Z,101750.59
2023-02-28T19:29:25.783Z,101750.46
2023-02-28T19:33:07.738Z,101756.81
2023-02-28T19:36:44.813Z,101758.41
2023-02-28T19:40:24.802Z,101758.27
2023-02-28T19:44:05.816Z,101755.59
2023-02-28T19:47:47.936Z,101755.17
2023-02-28T19:51:28.918Z,101748.70
2023-02-28T19:55:11.723Z,101742.91
2023-02-28T19:58:53.725Z,101745.45
2023-02-28T20:02:30.941Z,101742.58
2023-02-28T20:06:22.342Z,101738.03
2023-02-28T20:10:01.239Z,101734.98
2023-02-28T20:13:36.394Z,101736.48
2023-02-28T20:17:07.778Z,101743.74
2023-02-28T20:20:36.047Z,101740.70
2023-02-28T20:24:12.112Z,101739.83
2023-02-28T20:27:44.515Z,101722.36
2023-02-28T20:31:21.072Z,101714.33
2023-02-28T20:34:54.043Z,101703.25
2023-02-28T20:38:30.661Z,101692.19
2023-02-28T20:42:11.054Z,101688.30
2023-02-28T20:45:56.256Z,101682.61
2023-02-28T20:49:31.782Z,101681.85
2023-02-28T20:53:09.712Z,101679.89
2023-02-28T20:56:45.763Z,101673.46
2023-02-28T21:00:25.993Z,101668.71
2023-02-28T21:04:00.559Z,101661.20
2023-02-28T21:07:40.088Z,101660.99
2023-02-28T21:11:16.783Z,101669.39
2023-02-28T21:14:55.935Z,101658.08
2023-02-28T21:18:31.984Z,101654.36
2023-02-28T21:22:11.344Z,101656.34
2023-02-28T21:25:47.650Z,101651.44
2023-02-28T21:29:29.801Z,101649.83
2023-02-28T21:33:04.453Z,101651.61
2023-02-28T21:36:43.728Z,101653.66
2023-02-28T21:40:18.954Z,101657.52
2023-02-28T21:43:57.672Z,101660.54
2023-02-28T21:47:30.623Z,101658.27
2023-02-28T21:51:07.553Z,101658.35
2023-02-28T21:54:41.696Z,101652.69
2023-02-28T21:58:19.229Z,101647.11
2023-02-28T22:01:51.892Z,101657.53
2023-02-28T22:05:29.657Z,101663.91
2023-02-28T22:09:08.615Z,101662.64
2023-02-28T22:12:51.625Z,101673.16
2023-02-28T22:16:28.211Z,101669.25
2023-02-28T22:20:08.377Z,101659.82
2023-02-28T22:23:46.484Z,101659.76
2023-02-28T22:27:25.373Z,101654.48
2023-02-28T22:31:01.041Z,101648.38
2023-02-28T22:34:40.442Z,101644.25
2023-02-28T22:38:19.835Z,101635.59
2023-02-28T22:41:54.911Z,101629.63
2023-02-28T22:45:33.900Z,101627.80
2023-02-28T22:49:08.846Z,101627.56
2023-02-28T22:52:48.486Z,101621.48
2023-02-28T22:56:23.785Z,101624.39
2023-02-28T23:00:02.623Z,101613.16
2023-02-28T23:03:37.808Z,101617.08
2023-02-28T23:07:14.412Z,101611.33
2023-02-28T23:10:47.971Z,101604.53
2023-02-28T23:14:30.227Z,101597.14
2023-02-28T23:18:06.255Z,101589.77
2023-02-28T23:21:44.778Z,101579.32
2023-02-28T23:25:20.057Z,101574.56
2023-02-28T23:28:58.928Z,101573.77
2023-02-28T23:32:35.042Z,101564.58
2023-02-28T23:36:14.120Z,101552.80
2023-02-28T23:39:48.776Z,101551.45
2023-02-28T23:43:31.087Z,101531.92
2023-02-28T23:47:06.859Z,101529.23
2023-02-28T23:50:46.466Z,101522.42
2023-02-28T23:54:23.358Z,101518.69
2023-02-28T23:58:02.306Z,101524.55
